Ely, MN

05:09 AM CDT del 22 Settembre 2014 (GMT -0500)
Ely Municipal | Change Station
CLOSE
Current Station
Aeroporto
Location: Ely,
Altitudine: 1453 ft
Stazioni meteo nelle vicinanze

Alt. 1453 ft 47.82 °N, 91.83 °W | Updated 17 minutes ago

Parzialmente nuvoloso
Parzialmente nuvoloso
46 °F
Sembra 44 °F
N
6
Vento Variabile Vento da OSO

Oggi
Massima -- | Minima -- °F
--% Possibilità di precip.
Ieri
Massima -- | Minima -- °F
Precip. -- in
6:54 AM 7:05 PM
Luna calante, 3% visible
Pressione 30.16 in
Visibilità 0.8 miglia
Nuvole Coperto 300 ft
Raffreddamento del vento 44 °F
Punto di rugiada 45 °F
Umidità 93%
Piovosità 0.00 in
Spessore del manto nevoso Non disponibile.
Raggi UV 0 fuori da 12
Polline .60 fuori da 12
Qualità dell'aria Non disponibile.
Flu Activity Non disponibile.
METAR KELO 220952Z AUTO 25005KT 3/4SM BR OVC003 08/07 A3016 RMK AO2

More Conditions Fewer Conditions

Pressione 30.16 in
Visibilità 0.8 miglia
Nuvole Coperto 300 ft
Raffreddamento del vento 44 °F
Punto di rugiada 45 °F
Umidità 93%
Piovosità 0.00 in
Spessore del manto nevoso Non disponibile.
Raggi UV 0 fuori da 12
Polline .60 fuori da 12
Qualità dell'aria Non disponibile.
Flu Activity Non disponibile.
METAR KELO 220952Z AUTO 25005KT 3/4SM BR OVC003 08/07 A3016 RMK AO2

More Conditions Fewer Conditions

10-Day Weather Forecast

Almanac

Astronomia

Sep. 22, 2014 Alba Tramonto
Ora attuale 06:54 CDT 19:05 CDT
Crepuscolo civile 06:23 CDT 19:35 CDT
Crepuscolo nautico 05:46 CDT 20:12 CDT
Crepuscolo astronomico 05:09 CDT 20:49 CDT
Luna 05:18 CDT 18:15 CDT
Estensione della luce visibile 13h 12m
Lunghezza del giorno
12h 10m
Tomorrow will be 3m 26s shorter.
Luna calante, 3% of the Moon is Illuminated
Oggi
Luna calante
Set 24
Nuovo
Ott 1
Primo quarto
Ott 8
Luna piena
Ott 15
Ultimo quarto

Gli estremi di oggi

State Highs State Lows

Community

WunderPhotos

Upload Photos

1,755,403 foto caricate!

Nearby

Profondità neve

Stazione Profondità Altitudine
Non sono state evidenziate nuove nevicate

Attività sismica

Città  Distanza Mag. Data & Ora
Non sono state riportate attività sismiche nelle vicinanze.
Minimo Magnitudo Mostrato è 2.5.

Temperature delle acque costiere

Località Temperatura
Nessun dato dalle stazioni

Stazioni meteo nelle vicinanze